createdAt,value
2018-08-28T00:01:30.833Z,17.80
2018-08-28T00:03:58.468Z,17.90
2018-08-28T00:06:26.844Z,17.90
2018-08-28T00:08:54.456Z,18.00
2018-08-28T00:11:22.080Z,18.00
2018-08-28T00:13:49.726Z,18.00
2018-08-28T00:16:17.321Z,18.00
2018-08-28T00:18:44.940Z,18.00
2018-08-28T00:21:12.529Z,18.10
2018-08-28T00:23:40.512Z,18.20
2018-08-28T00:26:08.458Z,18.20
2018-08-28T00:28:36.489Z,18.20
2018-08-28T00:31:04.088Z,18.20
2018-08-28T00:33:31.663Z,18.20
2018-08-28T00:35:59.435Z,18.20
2018-08-28T00:38:27.003Z,18.30
2018-08-28T00:40:54.663Z,18.30
2018-08-28T00:43:22.248Z,18.30
2018-08-28T00:45:49.898Z,18.40
2018-08-28T00:48:17.581Z,18.40
2018-08-28T00:50:45.272Z,18.40
2018-08-28T00:53:12.935Z,18.30
2018-08-28T00:55:40.522Z,18.30
2018-08-28T00:58:08.739Z,18.40
2018-08-28T01:00:36.314Z,18.40
2018-08-28T01:03:04.178Z,18.30
2018-08-28T01:05:31.866Z,18.30
2018-08-28T01:07:59.475Z,18.30
2018-08-28T01:10:27.143Z,18.30
2018-08-28T01:12:54.894Z,18.30
2018-08-28T01:15:22.496Z,18.20
2018-08-28T01:17:50.091Z,18.20
2018-08-28T01:22:52.259Z,18.20
2018-08-28T01:25:19.885Z,18.20
2018-08-28T01:27:47.418Z,18.20
2018-08-28T01:30:19.668Z,18.20
2018-08-28T01:32:47.234Z,18.30
2018-08-28T01:35:14.870Z,18.30
2018-08-28T01:37:42.494Z,18.30
2018-08-28T01:40:10.112Z,18.20
2018-08-28T01:42:37.746Z,18.20
2018-08-28T01:45:05.848Z,18.20
2018-08-28T01:47:33.437Z,18.20
2018-08-28T01:50:01.026Z,18.30
2018-08-28T01:52:28.702Z,18.20
2018-08-28T01:54:56.389Z,18.20
2018-08-28T01:57:24.044Z,18.10
2018-08-28T01:59:51.660Z,18.20
2018-08-28T02:02:19.306Z,18.20
2018-08-28T02:04:46.903Z,18.20
2018-08-28T02:07:14.578Z,18.20
2018-08-28T02:09:42.329Z,18.10
2018-08-28T02:12:10.030Z,18.10
2018-08-28T02:14:37.560Z,18.10
2018-08-28T02:17:05.250Z,18.10
2018-08-28T02:19:32.845Z,18.00
2018-08-28T02:22:00.499Z,18.00
2018-08-28T02:24:28.096Z,18.00
2018-08-28T02:26:55.798Z,17.90
2018-08-28T02:29:23.455Z,17.90
2018-08-28T02:31:51.058Z,18.00
2018-08-28T02:34:18.635Z,17.90
2018-08-28T02:36:46.249Z,17.90
2018-08-28T02:39:13.857Z,17.90
2018-08-28T02:41:41.691Z,17.90
2018-08-28T02:44:09.327Z,17.90
2018-08-28T02:46:37.502Z,17.90
2018-08-28T02:49:05.374Z,17.80
2018-08-28T02:51:33.232Z,17.80
2018-08-28T02:54:00.870Z,17.80
2018-08-28T02:56:28.472Z,17.80
2018-08-28T02:58:56.464Z,17.80
2018-08-28T03:01:25.299Z,17.80
2018-08-28T03:03:52.907Z,17.80
2018-08-28T03:06:20.893Z,17.70
2018-08-28T03:08:48.637Z,17.80
2018-08-28T03:11:16.353Z,17.80
2018-08-28T03:13:43.954Z,17.80
2018-08-28T03:16:11.548Z,17.80
2018-08-28T03:18:39.181Z,17.80
2018-08-28T03:21:06.947Z,17.70
2018-08-28T03:23:34.758Z,17.70
2018-08-28T03:26:02.453Z,17.70
2018-08-28T03:28:30.111Z,17.70
2018-08-28T03:30:57.691Z,17.70
2018-08-28T03:33:25.307Z,17.70
2018-08-28T03:35:53.230Z,17.70
2018-08-28T03:38:21.067Z,17.70
2018-08-28T03:40:48.782Z,17.60
2018-08-28T03:43:16.434Z,17.60
2018-08-28T03:45:44.014Z,17.60
2018-08-28T03:48:18.527Z,17.50
2018-08-28T03:50:46.179Z,17.50
2018-08-28T03:53:13.904Z,17.50
2018-08-28T03:55:41.543Z,17.40
2018-08-28T03:58:09.255Z,17.40
2018-08-28T04:00:36.837Z,17.30
2018-08-28T04:03:04.597Z,17.20
2018-08-28T04:05:32.253Z,17.30
2018-08-28T04:07:59.864Z,17.30
2018-08-28T04:10:27.861Z,17.20
2018-08-28T04:12:55.450Z,17.20
2018-08-28T04:15:23.151Z,17.30
2018-08-28T04:17:51.714Z,17.30
2018-08-28T04:20:20.483Z,17.30
2018-08-28T04:22:48.085Z,17.30
2018-08-28T04:25:17.454Z,17.20
2018-08-28T04:27:45.613Z,17.20
2018-08-28T04:30:13.332Z,17.30
2018-08-28T04:32:41.034Z,17.30
2018-08-28T04:35:08.605Z,17.30
2018-08-28T04:37:36.223Z,17.40
2018-08-28T04:40:04.581Z,17.40
2018-08-28T04:42:32.273Z,17.50
2018-08-28T04:44:59.882Z,17.60
2018-08-28T04:47:27.541Z,17.60
2018-08-28T04:49:55.139Z,17.60
2018-08-28T04:52:22.766Z,17.60
2018-08-28T04:54:50.431Z,17.60
2018-08-28T04:57:18.079Z,17.60
2018-08-28T04:59:45.641Z,17.70
2018-08-28T05:02:13.387Z,17.70
2018-08-28T05:04:41.723Z,17.70
2018-08-28T05:07:09.699Z,17.70
2018-08-28T05:09:37.377Z,17.70
2018-08-28T05:12:05.085Z,17.80
2018-08-28T05:14:32.801Z,17.80
2018-08-28T05:17:00.462Z,17.80
2018-08-28T05:19:28.210Z,17.80
2018-08-28T05:21:55.797Z,17.90
2018-08-28T05:24:23.405Z,18.00
2018-08-28T05:26:51.658Z,18.10
2018-08-28T05:29:19.461Z,18.10
2018-08-28T05:31:47.136Z,18.30
2018-08-28T05:34:14.770Z,18.30
2018-08-28T05:36:42.433Z,18.20
2018-08-28T05:39:10.093Z,18.30
2018-08-28T05:41:37.784Z,18.30
2018-08-28T05:44:05.470Z,18.20
2018-08-28T05:46:33.134Z,18.20
2018-08-28T05:49:00.817Z,18.10
2018-08-28T05:51:28.578Z,18.00
2018-08-28T05:53:56.208Z,18.10
2018-08-28T05:56:23.888Z,18.10
2018-08-28T05:58:51.571Z,18.10
2018-08-28T06:01:19.310Z,18.00
2018-08-28T06:03:47.002Z,18.00
2018-08-28T06:06:14.620Z,18.00
2018-08-28T06:08:42.395Z,18.10
2018-08-28T06:11:10.017Z,18.00
2018-08-28T06:13:37.746Z,17.80
2018-08-28T06:16:05.447Z,17.80
2018-08-28T06:18:33.121Z,17.90
2018-08-28T06:21:00.729Z,17.80
2018-08-28T06:23:28.570Z,17.90
2018-08-28T06:25:56.277Z,18.00
2018-08-28T06:28:23.946Z,18.10
2018-08-28T06:30:51.606Z,18.20
2018-08-28T06:33:19.301Z,18.40
2018-08-28T06:35:46.947Z,18.30
2018-08-28T06:38:14.621Z,18.50
2018-08-28T06:40:42.255Z,18.90
2018-08-28T06:43:09.901Z,18.90
2018-08-28T06:45:37.537Z,19.00
2018-08-28T06:48:05.270Z,19.30
2018-08-28T06:50:32.847Z,19.30
2018-08-28T06:53:00.469Z,19.10
2018-08-28T06:55:28.167Z,19.10
2018-08-28T06:57:55.851Z,19.00
2018-08-28T07:00:23.491Z,19.20
2018-08-28T07:02:51.182Z,19.30
2018-08-28T07:05:18.889Z,19.40
2018-08-28T07:07:46.471Z,19.30
2018-08-28T07:10:14.187Z,19.30
2018-08-28T07:12:41.786Z,19.20
2018-08-28T07:15:09.479Z,19.10
2018-08-28T07:17:37.110Z,19.10
2018-08-28T07:20:05.170Z,19.00
2018-08-28T07:22:32.809Z,19.10
2018-08-28T07:25:00.438Z,19.10
2018-08-28T07:27:28.020Z,19.20
2018-08-28T07:29:55.639Z,19.20
2018-08-28T07:32:23.185Z,19.10
2018-08-28T07:34:50.924Z,19.10
2018-08-28T07:37:18.561Z,19.10
2018-08-28T07:39:46.187Z,19.10
2018-08-28T07:42:13.823Z,19.10
2018-08-28T07:44:41.573Z,19.30
2018-08-28T07:47:09.256Z,19.40
2018-08-28T07:49:36.889Z,19.80
2018-08-28T07:52:04.529Z,20.10
2018-08-28T07:54:32.227Z,20.30
2018-08-28T07:56:59.831Z,20.60
2018-08-28T07:59:27.467Z,20.90
2018-08-28T08:01:55.201Z,20.80
2018-08-28T08:04:22.868Z,20.80
2018-08-28T08:06:50.457Z,21.00
2018-08-28T08:09:18.535Z,21.10
2018-08-28T08:11:46.251Z,20.90
2018-08-28T08:14:13.931Z,20.90
2018-08-28T08:16:41.530Z,20.70
2018-08-28T08:19:09.194Z,20.80
2018-08-28T08:21:36.836Z,21.20
2018-08-28T08:24:04.518Z,21.50
2018-08-28T08:26:32.340Z,21.80
2018-08-28T08:29:00.044Z,22.10
2018-08-28T08:31:27.663Z,22.40
2018-08-28T08:33:55.257Z,22.60
2018-08-28T08:36:22.823Z,22.90
2018-08-28T08:38:50.455Z,23.10
2018-08-28T08:41:18.165Z,23.10
2018-08-28T08:43:45.811Z,22.60
2018-08-28T08:46:13.443Z,22.70
2018-08-28T08:48:41.070Z,23.00
2018-08-28T08:51:08.767Z,22.80
2018-08-28T08:53:36.389Z,22.40
2018-08-28T08:56:04.073Z,22.70
2018-08-28T08:58:31.663Z,23.00
2018-08-28T09:00:59.373Z,23.00
2018-08-28T09:03:26.914Z,22.60
2018-08-28T09:05:54.761Z,22.40
2018-08-28T09:08:22.441Z,22.60
2018-08-28T09:10:50.041Z,22.70
2018-08-28T09:13:17.817Z,22.60
2018-08-28T09:15:45.508Z,22.10
2018-08-28T09:18:13.138Z,22.40
2018-08-28T09:20:40.694Z,22.80
2018-08-28T09:23:08.299Z,22.90
2018-08-28T09:25:35.872Z,22.80
2018-08-28T09:28:03.614Z,22.90
2018-08-28T09:30:31.234Z,23.40
2018-08-28T09:32:58.814Z,23.20
2018-08-28T09:35:26.466Z,23.20
2018-08-28T09:37:54.094Z,23.30
2018-08-28T09:40:21.671Z,23.40
2018-08-28T09:42:49.301Z,23.60
2018-08-28T09:45:16.952Z,24.00
2018-08-28T09:47:44.545Z,23.80
2018-08-28T09:50:12.212Z,23.40
2018-08-28T09:52:39.771Z,23.60
2018-08-28T09:55:07.435Z,24.20
2018-08-28T09:57:35.088Z,24.30
2018-08-28T10:00:02.724Z,24.20
2018-08-28T10:02:30.670Z,23.90
2018-08-28T10:04:58.540Z,24.00
2018-08-28T10:07:25.921Z,23.10
2018-08-28T10:09:53.491Z,22.40
2018-08-28T10:12:21.143Z,22.80
2018-08-28T10:14:48.777Z,23.70
2018-08-28T10:17:16.451Z,24.10
2018-08-28T10:19:44.047Z,24.50
2018-08-28T10:22:11.705Z,24.80
2018-08-28T10:24:39.295Z,24.70
2018-08-28T10:27:06.883Z,24.80
2018-08-28T10:29:34.548Z,24.90
2018-08-28T10:32:02.171Z,23.60
2018-08-28T10:34:29.741Z,23.10
2018-08-28T10:36:57.410Z,23.60
2018-08-28T10:39:25.004Z,23.90
2018-08-28T10:41:52.600Z,24.20
2018-08-28T10:44:20.264Z,24.00
2018-08-28T10:46:48.046Z,23.70
2018-08-28T10:49:15.563Z,23.60
2018-08-28T10:51:43.224Z,23.00
2018-08-28T10:54:10.842Z,23.10
2018-08-28T10:56:38.490Z,23.40
2018-08-28T10:59:06.114Z,23.10
2018-08-28T11:01:33.761Z,23.10
2018-08-28T11:04:01.514Z,23.10
2018-08-28T11:06:29.126Z,23.40
2018-08-28T11:08:56.734Z,23.70
2018-08-28T11:11:24.349Z,24.00
2018-08-28T11:13:51.978Z,24.70
2018-08-28T11:16:19.570Z,25.10
2018-08-28T11:18:47.211Z,25.40
2018-08-28T11:21:15.991Z,25.60
2018-08-28T11:23:43.641Z,25.40
2018-08-28T11:26:11.362Z,24.30
2018-08-28T11:28:39.005Z,25.10
2018-08-28T11:31:06.699Z,25.10
2018-08-28T11:33:34.515Z,26.10
2018-08-28T11:36:02.059Z,26.60
2018-08-28T11:38:29.757Z,26.60
2018-08-28T11:40:57.315Z,26.90
2018-08-28T11:43:24.954Z,27.10
2018-08-28T11:45:53.257Z,27.20
2018-08-28T11:48:20.858Z,27.20
2018-08-28T11:50:48.490Z,26.40
2018-08-28T11:53:16.328Z,26.10
2018-08-28T11:55:43.870Z,25.80
2018-08-28T11:58:11.523Z,25.80
2018-08-28T12:00:39.131Z,26.00
2018-08-28T12:03:06.833Z,25.90
2018-08-28T12:05:34.556Z,26.00
2018-08-28T12:08:02.206Z,26.40
2018-08-28T12:10:29.846Z,26.90
2018-08-28T12:12:57.584Z,28.00
2018-08-28T12:15:25.220Z,29.00
2018-08-28T12:17:52.852Z,27.40
2018-08-28T12:20:20.529Z,28.00
2018-08-28T12:22:48.093Z,29.50
2018-08-28T12:25:15.742Z,29.10
2018-08-28T12:27:43.395Z,28.10
2018-08-28T12:30:11.359Z,26.90
2018-08-28T12:32:38.946Z,26.20
2018-08-28T12:35:06.890Z,26.50
2018-08-28T12:37:34.680Z,26.40
2018-08-28T12:40:02.448Z,26.60
2018-08-28T12:42:30.601Z,26.60
2018-08-28T12:44:58.294Z,26.60
2018-08-28T12:47:25.969Z,26.90
2018-08-28T12:49:53.597Z,26.60
2018-08-28T12:52:21.243Z,28.80
2018-08-28T12:54:49.136Z,31.70
2018-08-28T12:57:16.983Z,33.90
2018-08-28T12:59:44.605Z,33.10
2018-08-28T13:02:12.396Z,32.70
2018-08-28T13:04:39.937Z,31.80
2018-08-28T13:07:07.568Z,31.30
2018-08-28T13:09:35.340Z,31.00
2018-08-28T13:12:03.106Z,29.60
2018-08-28T13:14:31.053Z,28.30
2018-08-28T13:16:58.891Z,28.60
2018-08-28T13:19:26.601Z,29.10
2018-08-28T13:21:54.198Z,30.70
2018-08-28T13:24:21.893Z,32.70
2018-08-28T13:26:49.606Z,34.00
2018-08-28T13:29:17.270Z,35.30
2018-08-28T13:31:44.884Z,34.80
2018-08-28T13:34:12.590Z,32.70
2018-08-28T13:36:40.194Z,33.10
2018-08-28T13:39:07.822Z,34.50
2018-08-28T13:41:35.651Z,35.40
2018-08-28T13:44:03.264Z,36.10
2018-08-28T13:46:30.937Z,35.70
2018-08-28T13:48:58.593Z,35.40
2018-08-28T13:51:26.269Z,34.90
2018-08-28T13:53:54.125Z,36.10
2018-08-28T13:56:21.611Z,36.00
2018-08-28T13:58:49.195Z,37.40
2018-08-28T14:01:16.938Z,37.20
2018-08-28T14:03:44.611Z,36.70
2018-08-28T14:06:12.233Z,36.50
2018-08-28T14:08:39.854Z,37.20
2018-08-28T14:11:07.508Z,37.70
2018-08-28T14:13:35.235Z,38.70
2018-08-28T14:16:02.833Z,38.70
2018-08-28T14:18:30.682Z,35.50
2018-08-28T14:20:58.438Z,35.10
2018-08-28T14:23:26.168Z,37.10
2018-08-28T14:25:53.920Z,38.30
2018-08-28T14:28:21.518Z,37.40
2018-08-28T14:30:49.239Z,36.60
2018-08-28T14:33:16.928Z,35.00
2018-08-28T14:35:44.692Z,36.00
2018-08-28T14:38:12.225Z,37.70
2018-08-28T14:40:39.922Z,37.30
2018-08-28T14:43:07.559Z,38.50
2018-08-28T14:45:35.210Z,39.30
2018-08-28T14:48:03.026Z,39.80
2018-08-28T14:50:31.141Z,39.10
2018-08-28T14:52:58.738Z,38.80
2018-08-28T14:55:26.384Z,38.90
2018-08-28T14:57:54.106Z,38.20
2018-08-28T15:00:21.736Z,38.60
2018-08-28T15:02:49.364Z,39.20
2018-08-28T15:05:16.937Z,39.10
2018-08-28T15:07:44.582Z,38.80
2018-08-28T15:10:12.267Z,38.90
2018-08-28T15:12:39.974Z,39.10
2018-08-28T15:15:07.678Z,39.10
2018-08-28T15:17:35.402Z,38.80
2018-08-28T15:20:03.188Z,38.50
2018-08-28T15:22:31.034Z,37.80
2018-08-28T15:24:58.970Z,37.30
2018-08-28T15:27:26.645Z,35.80
2018-08-28T15:29:54.260Z,36.30
2018-08-28T15:32:21.935Z,34.80
2018-08-28T15:34:49.591Z,35.00
2018-08-28T15:37:17.321Z,35.40
2018-08-28T15:39:44.950Z,34.60
2018-08-28T15:42:13.018Z,35.30
2018-08-28T15:44:40.641Z,35.40
2018-08-28T15:47:08.348Z,35.50
2018-08-28T15:49:36.006Z,35.30
2018-08-28T15:52:03.738Z,35.70
2018-08-28T15:54:31.450Z,36.10
2018-08-28T15:56:59.098Z,35.90
2018-08-28T15:59:26.860Z,35.80
2018-08-28T16:01:54.819Z,35.30
2018-08-28T16:04:22.448Z,34.60
2018-08-28T16:06:51.327Z,34.50
2018-08-28T16:09:18.948Z,34.20
2018-08-28T16:11:47.124Z,33.60
2018-08-28T16:14:14.906Z,34.00
2018-08-28T16:16:43.180Z,33.80
2018-08-28T16:19:10.888Z,33.40
2018-08-28T16:21:43.511Z,33.00
2018-08-28T16:24:11.195Z,33.20
2018-08-28T16:26:39.101Z,32.80
2018-08-28T16:29:07.081Z,32.60
2018-08-28T16:31:34.989Z,32.30
2018-08-28T16:34:02.699Z,32.00
2018-08-28T16:36:31.030Z,31.70
2018-08-28T16:38:58.771Z,30.90
2018-08-28T16:41:26.684Z,30.20
2018-08-28T16:43:54.415Z,29.80
2018-08-28T16:46:22.287Z,29.80
2018-08-28T16:48:49.943Z,30.10
2018-08-28T16:51:17.612Z,29.70
2018-08-28T16:53:45.375Z,29.70
2018-08-28T16:56:13.087Z,29.50
2018-08-28T16:58:40.684Z,29.60
2018-08-28T17:01:08.279Z,29.60
2018-08-28T17:03:35.973Z,29.60
2018-08-28T17:06:03.622Z,29.50
2018-08-28T17:08:31.250Z,29.20
2018-08-28T17:10:58.916Z,29.00
2018-08-28T17:13:26.552Z,28.40
2018-08-28T17:15:54.208Z,27.50
2018-08-28T17:18:22.467Z,26.70
2018-08-28T17:20:50.194Z,26.20
2018-08-28T17:23:17.982Z,25.80
2018-08-28T17:25:45.823Z,25.40
2018-08-28T17:28:13.417Z,25.10
2018-08-28T17:30:41.114Z,24.90
2018-08-28T17:33:08.792Z,24.40
2018-08-28T17:35:36.477Z,24.10
2018-08-28T17:38:04.585Z,23.90
2018-08-28T17:40:32.204Z,23.60
2018-08-28T17:42:59.810Z,23.40
2018-08-28T17:45:27.539Z,23.10
2018-08-28T17:47:55.348Z,22.90
2018-08-28T17:50:23.142Z,22.70
2018-08-28T17:52:50.808Z,22.50
2018-08-28T17:55:19.541Z,22.40
2018-08-28T17:57:47.488Z,22.30
2018-08-28T18:00:15.402Z,22.10
2018-08-28T18:02:43.270Z,21.90
2018-08-28T18:05:11.046Z,21.70
2018-08-28T18:07:38.804Z,21.50
2018-08-28T18:10:06.698Z,21.40
2018-08-28T18:12:34.659Z,21.30
2018-08-28T18:15:02.424Z,21.20
2018-08-28T18:17:30.158Z,20.90
2018-08-28T18:19:58.164Z,20.70
2018-08-28T18:22:26.128Z,20.40
2018-08-28T18:24:54.093Z,20.20
2018-08-28T18:27:22.005Z,19.90
2018-08-28T18:29:50.099Z,19.70
2018-08-28T18:32:17.863Z,19.60
2018-08-28T18:34:45.652Z,19.50
2018-08-28T18:37:13.629Z,19.50
2018-08-28T18:39:41.399Z,19.30
2018-08-28T18:42:09.231Z,19.20
2018-08-28T18:44:37.111Z,19.00
2018-08-28T18:47:05.082Z,18.90
2018-08-28T18:49:32.907Z,18.70
2018-08-28T18:52:00.814Z,18.70
2018-08-28T18:54:28.613Z,18.70
2018-08-28T18:56:56.638Z,18.70
2018-08-28T18:59:24.498Z,18.70
2018-08-28T19:01:52.444Z,18.70
2018-08-28T19:04:20.421Z,18.70
2018-08-28T19:06:48.254Z,18.50
2018-08-28T19:09:16.845Z,18.30
2018-08-28T19:11:44.707Z,18.20
2018-08-28T19:14:12.646Z,18.10
2018-08-28T19:16:40.428Z,18.00
2018-08-28T19:19:09.367Z,17.90
2018-08-28T19:21:37.147Z,17.90
2018-08-28T19:24:05.054Z,17.80
2018-08-28T19:26:32.793Z,17.80
2018-08-28T19:29:00.575Z,17.80
2018-08-28T19:31:28.358Z,17.70
2018-08-28T19:33:56.169Z,17.50
2018-08-28T19:36:24.025Z,17.50
2018-08-28T19:38:52.052Z,17.50
2018-08-28T19:41:20.008Z,17.50
2018-08-28T19:43:48.139Z,17.40
2018-08-28T19:46:15.946Z,17.30
2018-08-28T19:48:43.858Z,17.30
2018-08-28T19:51:11.668Z,17.20
2018-08-28T19:53:41.619Z,17.20
2018-08-28T19:56:09.954Z,17.10
2018-08-28T19:58:37.776Z,17.20
2018-08-28T20:01:05.778Z,17.10
2018-08-28T20:03:33.482Z,17.10
2018-08-28T20:06:01.462Z,17.10
2018-08-28T20:08:29.516Z,17.00
2018-08-28T20:10:57.254Z,16.90
2018-08-28T20:13:25.006Z,16.90
2018-08-28T20:15:52.732Z,16.80
2018-08-28T20:18:20.429Z,16.80
2018-08-28T20:20:48.219Z,16.70
2018-08-28T20:23:15.915Z,16.70
2018-08-28T20:25:43.714Z,16.60
2018-08-28T20:28:11.376Z,16.60
2018-08-28T20:30:39.276Z,16.50
2018-08-28T20:33:07.113Z,16.50
2018-08-28T20:35:34.815Z,16.50
2018-08-28T20:38:02.580Z,16.40
2018-08-28T20:40:30.391Z,16.40
2018-08-28T20:42:58.568Z,16.40
2018-08-28T20:45:26.327Z,16.40
2018-08-28T20:47:54.033Z,16.30
2018-08-28T20:50:21.767Z,16.30
2018-08-28T20:52:49.516Z,16.20
2018-08-28T20:55:17.189Z,16.20
2018-08-28T20:57:44.884Z,16.20
2018-08-28T21:00:12.632Z,16.10
2018-08-28T21:02:40.466Z,16.10
2018-08-28T21:05:08.183Z,16.10
2018-08-28T21:07:35.941Z,16.00
2018-08-28T21:10:03.949Z,16.00
2018-08-28T21:12:31.707Z,15.90
2018-08-28T21:14:59.472Z,15.90
2018-08-28T21:17:27.202Z,15.80
2018-08-28T21:19:55.036Z,15.80
2018-08-28T21:22:22.702Z,15.80
2018-08-28T21:24:50.406Z,15.70
2018-08-28T21:27:18.053Z,15.60
2018-08-28T21:29:45.746Z,15.60
2018-08-28T21:32:13.430Z,15.60
2018-08-28T21:34:41.129Z,15.60
2018-08-28T21:37:09.017Z,15.60
2018-08-28T21:39:36.780Z,15.50
2018-08-28T21:42:04.526Z,15.50
2018-08-28T21:44:32.167Z,15.50
2018-08-28T21:46:59.940Z,15.40
2018-08-28T21:49:27.553Z,15.30
2018-08-28T21:51:55.217Z,15.30
2018-08-28T21:54:22.881Z,15.30
2018-08-28T21:56:50.591Z,15.20
2018-08-28T21:59:18.334Z,15.20
2018-08-28T22:01:46.048Z,15.10
2018-08-28T22:04:13.671Z,15.10
2018-08-28T22:06:47.141Z,15.00
2018-08-28T22:09:14.823Z,14.90
2018-08-28T22:11:42.535Z,14.90
2018-08-28T22:14:10.231Z,14.80
2018-08-28T22:16:38.035Z,14.70
2018-08-28T22:19:05.753Z,14.70
2018-08-28T22:21:33.408Z,14.60
2018-08-28T22:24:01.195Z,14.50
2018-08-28T22:26:28.947Z,14.40
2018-08-28T22:28:56.629Z,14.40
2018-08-28T22:31:24.467Z,14.40
2018-08-28T22:33:52.153Z,14.40
2018-08-28T22:36:19.893Z,14.40
2018-08-28T22:38:47.572Z,14.30
2018-08-28T22:41:15.296Z,14.30
2018-08-28T22:43:43.019Z,14.20
2018-08-28T22:46:10.702Z,14.20
2018-08-28T22:48:38.368Z,14.20
2018-08-28T22:51:06.103Z,14.20
2018-08-28T22:53:33.814Z,14.10
2018-08-28T22:56:01.461Z,14.10
2018-08-28T22:58:29.099Z,14.00
2018-08-28T23:00:56.743Z,14.00
2018-08-28T23:03:24.454Z,14.00
2018-08-28T23:05:52.145Z,14.00
2018-08-28T23:08:19.892Z,14.00
2018-08-28T23:10:47.552Z,14.00
2018-08-28T23:13:15.277Z,14.00
2018-08-28T23:15:43.035Z,13.80
2018-08-28T23:18:10.826Z,13.80
2018-08-28T23:20:38.471Z,13.70
2018-08-28T23:23:06.491Z,13.70
2018-08-28T23:25:34.227Z,13.60
2018-08-28T23:28:01.967Z,13.70
2018-08-28T23:30:29.788Z,13.70
2018-08-28T23:32:57.429Z,13.60
2018-08-28T23:35:25.058Z,13.60
2018-08-28T23:37:52.679Z,13.50
2018-08-28T23:40:20.317Z,13.50
2018-08-28T23:42:48.001Z,13.50
2018-08-28T23:45:15.637Z,13.50
2018-08-28T23:47:43.302Z,13.40
2018-08-28T23:50:10.976Z,13.50
2018-08-28T23:52:38.728Z,13.40
2018-08-28T23:55:06.435Z,13.40
2018-08-28T23:57:34.195Z,13.30
